createdAt,value
2022-10-22T00:00:47.617Z,1012.38
2022-10-22T00:05:46.850Z,1012.49
2022-10-22T00:10:47.104Z,1012.51
2022-10-22T00:15:45.303Z,1012.55
2022-10-22T00:20:45.495Z,1012.74
2022-10-22T00:25:43.773Z,1012.74
2022-10-22T00:30:43.052Z,1012.51
2022-10-22T00:35:42.685Z,1012.50
2022-10-22T00:40:42.480Z,1012.88
2022-10-22T00:45:42.042Z,1012.86
2022-10-22T00:50:39.817Z,1013.59
2022-10-22T00:55:39.076Z,1013.85
2022-10-22T01:00:38.299Z,1013.64
2022-10-22T01:05:37.512Z,1013.74
2022-10-22T01:10:36.725Z,1013.70
2022-10-22T01:15:36.058Z,1013.74
2022-10-22T01:20:35.241Z,1013.83
2022-10-22T01:25:35.444Z,1013.74
2022-10-22T01:30:33.621Z,1013.60
2022-10-22T01:40:32.088Z,1013.60
2022-10-22T01:45:30.311Z,1013.59
2022-10-22T01:50:30.948Z,1013.64
2022-10-22T01:55:29.787Z,1013.67
2022-10-22T02:00:29.031Z,1013.62
2022-10-22T02:05:28.265Z,1013.55
2022-10-22T02:10:29.453Z,1013.61
2022-10-22T02:15:26.924Z,1013.62
2022-10-22T02:20:26.978Z,1013.72
2022-10-22T02:25:26.162Z,1013.64
2022-10-22T02:30:24.339Z,1013.56
2022-10-22T02:35:24.558Z,1013.59
2022-10-22T02:40:22.747Z,1013.54
2022-10-22T02:45:22.255Z,1013.40
2022-10-22T02:50:25.375Z,1013.37
2022-10-22T02:55:20.655Z,1013.40
2022-10-22T03:01:00.920Z,1013.38
2022-10-22T03:05:19.079Z,1013.47
2022-10-22T03:10:18.438Z,1013.44
2022-10-22T03:15:18.707Z,1013.46
2022-10-22T03:20:17.067Z,1013.34
2022-10-22T03:25:16.550Z,1013.46
2022-10-22T03:30:15.351Z,1013.47
2022-10-22T03:35:15.651Z,1013.38
2022-10-22T03:40:13.889Z,1013.49
2022-10-22T03:45:13.622Z,1013.33
2022-10-22T03:50:12.565Z,1013.33
2022-10-22T03:55:11.871Z,1013.40
2022-10-22T04:00:10.872Z,1013.45
2022-10-22T04:05:10.167Z,1013.65
2022-10-22T04:10:08.354Z,1013.83
2022-10-22T04:15:09.580Z,1013.98
2022-10-22T04:20:07.981Z,1013.80
2022-10-22T04:25:06.969Z,1013.87
2022-10-22T04:30:06.306Z,1013.98
2022-10-22T04:35:05.403Z,1014.10
2022-10-22T04:40:04.621Z,1013.98
2022-10-22T04:45:05.126Z,1013.80
2022-10-22T04:50:02.436Z,1013.87
2022-10-22T04:55:01.693Z,1013.87
2022-10-22T05:00:02.938Z,1013.89
2022-10-22T05:05:01.023Z,1013.87
2022-10-22T05:10:00.362Z,1013.82
2022-10-22T05:14:59.399Z,1013.88
2022-10-22T05:19:58.548Z,1013.84
2022-10-22T05:24:57.698Z,1013.66
2022-10-22T05:29:56.923Z,1013.63
2022-10-22T05:34:56.092Z,1013.44
2022-10-22T05:40:06.483Z,1013.67
2022-10-22T05:44:54.537Z,1013.82
2022-10-22T05:49:53.674Z,1013.83
2022-10-22T05:54:53.280Z,1013.89
2022-10-22T05:59:53.255Z,1013.90
2022-10-22T06:04:51.392Z,1013.93
2022-10-22T06:09:50.550Z,1013.88
2022-10-22T06:14:50.858Z,1014.08
2022-10-22T06:19:49.182Z,1014.23
2022-10-22T06:24:49.044Z,1014.19
2022-10-22T06:29:47.808Z,1014.23
2022-10-22T06:34:46.961Z,1014.23
2022-10-22T06:39:46.543Z,1014.30
2022-10-22T06:44:45.219Z,1014.40
2022-10-22T06:49:44.521Z,1014.43
2022-10-22T06:54:43.920Z,1014.45
2022-10-22T06:59:43.041Z,1014.56
2022-10-22T07:04:43.386Z,1014.74
2022-10-22T07:09:41.864Z,1014.70
2022-10-22T07:14:42.069Z,1014.89
2022-10-22T07:19:39.800Z,1014.88
2022-10-22T07:24:40.524Z,1014.92
2022-10-22T07:29:40.840Z,1014.99
2022-10-22T07:34:40.558Z,1015.04
2022-10-22T07:39:37.421Z,1015.14
2022-10-22T07:44:36.652Z,1015.20
2022-10-22T07:49:35.744Z,1015.28
2022-10-22T07:54:35.062Z,1015.33
2022-10-22T07:59:34.386Z,1015.25
2022-10-22T08:04:33.724Z,1015.22
2022-10-22T08:09:35.010Z,1015.32
2022-10-22T08:14:32.284Z,1015.23
2022-10-22T08:19:31.581Z,1015.38
2022-10-22T08:24:31.851Z,1015.38
2022-10-22T08:29:31.168Z,1015.34
2022-10-22T08:34:29.466Z,1015.40
2022-10-22T08:39:29.784Z,1015.41
2022-10-22T08:44:28.086Z,1015.48
2022-10-22T08:49:26.376Z,1015.45
2022-10-22T08:54:27.693Z,1015.51
2022-10-22T08:59:26.020Z,1015.52
2022-10-22T09:04:25.415Z,1015.48
2022-10-22T09:09:24.578Z,1015.50
2022-10-22T09:14:23.897Z,1015.41
2022-10-22T09:19:23.196Z,1015.38
2022-10-22T09:24:22.479Z,1015.45
2022-10-22T09:29:21.764Z,1015.42
2022-10-22T09:34:23.089Z,1015.41
2022-10-22T09:39:20.384Z,1015.36
2022-10-22T09:44:20.638Z,1015.40
2022-10-22T09:49:18.907Z,1015.44
2022-10-22T09:54:19.191Z,1015.42
2022-10-22T09:59:16.447Z,1015.47
2022-10-22T10:04:17.781Z,1015.37
2022-10-22T10:09:16.964Z,1015.34
2022-10-22T10:14:15.158Z,1015.38
2022-10-22T10:19:14.464Z,1015.47
2022-10-22T10:24:14.745Z,1015.44
2022-10-22T10:29:13.032Z,1015.47
2022-10-22T10:34:12.351Z,1015.54
2022-10-22T10:39:12.678Z,1015.55
2022-10-22T10:44:11.997Z,1015.59
2022-10-22T10:49:11.303Z,1015.50
2022-10-22T10:54:09.590Z,1015.53
2022-10-22T10:59:08.898Z,1015.51
2022-10-22T11:04:09.202Z,1015.50
2022-10-22T11:09:07.600Z,1015.50
2022-10-22T11:14:07.750Z,1015.47
2022-10-22T11:19:06.067Z,1015.40
2022-10-22T11:24:05.368Z,1015.31
2022-10-22T11:29:05.668Z,1015.27
2022-10-22T11:34:28.463Z,1015.35
2022-10-22T11:39:03.270Z,1015.26
2022-10-22T11:44:03.419Z,1015.36
2022-10-22T11:49:02.731Z,1015.17
2022-10-22T11:54:01.028Z,1015.17
2022-10-22T11:59:00.372Z,1015.13
2022-10-22T12:03:59.582Z,1015.08
2022-10-22T12:08:59.799Z,1014.98
2022-10-22T12:13:57.983Z,1015.00
2022-10-22T12:18:57.173Z,1014.95
2022-10-22T12:23:57.365Z,1014.89
2022-10-22T12:28:55.556Z,1014.81
2022-10-22T12:33:54.745Z,1014.85
2022-10-22T12:38:54.957Z,1014.78
2022-10-22T12:43:53.128Z,1014.78
2022-10-22T12:48:53.323Z,1014.82
2022-10-22T12:53:51.505Z,1014.76
2022-10-22T12:58:51.780Z,1014.79
2022-10-22T13:03:49.984Z,1014.77
2022-10-22T13:08:49.194Z,1014.70
2022-10-22T13:13:49.427Z,1014.75
2022-10-22T13:18:48.596Z,1014.75
2022-10-22T13:23:46.757Z,1014.69
2022-10-22T13:28:45.956Z,1014.71
2022-10-22T13:33:45.110Z,1014.72
2022-10-22T13:38:44.306Z,1014.72
2022-10-22T13:43:43.491Z,1014.75
2022-10-22T13:48:43.670Z,1014.71
2022-10-22T13:53:43.851Z,1014.68
2022-10-22T13:58:41.016Z,1014.68
2022-10-22T14:03:40.185Z,1014.70
2022-10-22T14:08:39.431Z,1014.59
2022-10-22T14:13:38.615Z,1014.58
2022-10-22T14:18:39.810Z,1014.53
2022-10-22T14:23:37.010Z,1014.54
2022-10-22T14:28:41.193Z,1014.50
2022-10-22T14:33:36.530Z,1014.54
2022-10-22T14:38:34.541Z,1014.67
2022-10-22T14:43:34.938Z,1014.55
2022-10-22T14:48:32.920Z,1014.59
2022-10-22T14:53:32.131Z,1014.63
2022-10-22T14:58:31.336Z,1014.69
2022-10-22T15:03:30.617Z,1014.70
2022-10-22T15:08:29.810Z,1014.71
2022-10-22T15:13:29.995Z,1014.73
2022-10-22T15:18:30.195Z,1014.77
2022-10-22T15:23:28.365Z,1014.70
2022-10-22T15:28:26.552Z,1014.77
2022-10-22T15:33:25.746Z,1014.78
2022-10-22T15:38:25.063Z,1014.74
2022-10-22T15:43:25.261Z,1014.69
2022-10-22T15:48:23.643Z,1014.66
2022-10-22T15:53:23.661Z,1014.63
2022-10-22T15:58:21.858Z,1014.63
2022-10-22T16:03:21.237Z,1014.74
2022-10-22T16:08:22.308Z,1014.82
2022-10-22T16:13:20.474Z,1014.99
2022-10-22T16:18:20.657Z,1015.09
2022-10-22T16:23:19.214Z,1014.99
2022-10-22T16:28:17.104Z,1014.93
2022-10-22T16:33:16.297Z,1014.99
2022-10-22T16:38:15.466Z,1015.00
2022-10-22T16:43:14.678Z,1015.02
2022-10-22T16:48:15.188Z,1015.10
2022-10-22T16:53:14.040Z,1015.14
2022-10-22T16:58:12.350Z,1015.27
2022-10-22T17:03:12.777Z,1015.28
2022-10-22T17:08:10.709Z,1015.31
2022-10-22T17:13:11.309Z,1015.34
2022-10-22T17:18:09.421Z,1015.39
2022-10-22T17:23:09.766Z,1015.44
2022-10-22T17:28:08.038Z,1015.40
2022-10-22T17:33:07.132Z,1015.37
2022-10-22T17:38:10.402Z,1015.43
2022-10-22T17:43:05.965Z,1015.48
2022-10-22T17:48:04.979Z,1015.59
2022-10-22T17:53:04.959Z,1015.50
2022-10-22T17:58:04.396Z,1015.50
2022-10-22T18:03:03.428Z,1015.45
2022-10-22T18:08:05.531Z,1015.37
2022-10-22T18:13:01.224Z,1015.46
2022-10-22T18:18:01.452Z,1015.43
2022-10-22T18:23:00.608Z,1015.46
2022-10-22T18:28:03.813Z,1015.48
2022-10-22T18:32:58.208Z,1015.47
2022-10-22T18:37:58.476Z,1015.42
2022-10-22T18:42:56.419Z,1015.48
2022-10-22T18:47:56.982Z,1015.48
2022-10-22T18:52:55.208Z,1015.53
2022-10-22T18:57:54.484Z,1015.52
2022-10-22T19:02:55.718Z,1015.55
2022-10-22T19:07:53.794Z,1015.53
2022-10-22T19:12:51.959Z,1015.52
2022-10-22T19:17:51.072Z,1015.58
2022-10-22T19:22:52.606Z,1015.51
2022-10-22T19:27:49.577Z,1015.52
2022-10-22T19:32:48.767Z,1015.52
2022-10-22T19:37:48.593Z,1015.51
2022-10-22T19:42:48.260Z,1015.57
2022-10-22T19:47:46.325Z,1015.58
2022-10-22T19:52:46.743Z,1015.54
2022-10-22T19:57:46.956Z,1015.61
2022-10-22T20:02:45.962Z,1015.53
2022-10-22T20:07:43.610Z,1015.46
2022-10-22T20:12:43.735Z,1015.52
2022-10-22T20:17:45.569Z,1015.64
2022-10-22T20:22:42.175Z,1015.60
2022-10-22T20:27:41.317Z,1015.58
2022-10-22T20:32:39.839Z,1015.59
2022-10-22T20:37:38.861Z,1015.55
2022-10-22T20:42:38.051Z,1015.54
2022-10-22T20:47:51.133Z,1015.61
2022-10-22T20:52:38.801Z,1015.60
2022-10-22T20:57:35.827Z,1015.60
2022-10-22T21:02:35.305Z,1015.57
2022-10-22T21:07:34.314Z,1015.57
2022-10-22T21:12:33.503Z,1015.59
2022-10-22T21:17:33.714Z,1015.54
2022-10-22T21:22:31.913Z,1015.47
2022-10-22T21:27:31.077Z,1015.50
2022-10-22T21:32:30.286Z,1015.48
2022-10-22T21:37:30.491Z,1015.44
2022-10-22T21:42:28.665Z,1015.44
2022-10-22T21:47:28.879Z,1015.38
2022-10-22T21:52:27.031Z,1015.41
2022-10-22T21:57:27.273Z,1015.35
2022-10-22T22:02:25.466Z,1015.36
2022-10-22T22:07:24.654Z,1015.33
2022-10-22T22:12:23.843Z,1015.35
2022-10-22T22:17:23.124Z,1015.30
2022-10-22T22:22:22.419Z,1015.32
2022-10-22T22:27:21.563Z,1015.24
2022-10-22T22:32:21.761Z,1015.19
2022-10-22T22:37:19.895Z,1015.16
2022-10-22T22:42:19.059Z,1015.14
2022-10-22T22:47:18.189Z,1015.04
2022-10-22T22:52:18.393Z,1015.06
2022-10-22T22:57:16.506Z,1014.98
2022-10-22T23:02:16.824Z,1014.95
2022-10-22T23:07:15.134Z,1014.86
2022-10-22T23:12:15.278Z,1014.83
2022-10-22T23:17:14.438Z,1014.91
2022-10-22T23:22:14.757Z,1014.75
2022-10-22T23:27:14.065Z,1014.68
2022-10-22T23:32:12.392Z,1014.62
2022-10-22T23:37:10.725Z,1014.67
2022-10-22T23:42:10.835Z,1014.68
2022-10-22T23:47:09.152Z,1014.72
2022-10-22T23:52:08.484Z,1014.75
2022-10-22T23:57:07.825Z,1014.59
